Latest Weather Observations for Longerenong

IDV60801

Issued at 6:32 pm EDT Tuesday 17 October 2017 (issued every 30 minutes, with the page automatically refreshed every 10 minutes)

About weather observations | Map of weather stations | Latest weather observations for VIC | Other Formats
Station Details ID: 079028 Name: LONGERENONG Lat: -36.67 Lon: 142.30 Height: 133.0 m
Data from the previous 72 hours. | See also: Recent months at Longerenong
Date/Time
EDT
Temp
°C
App
Temp
°C
Dew
Point
°C
Rel
Hum
%
Delta-T
°C
Wind Press
QNH
hPa
Press
MSL
hPa
Rain since
9am
mm
Dir  Spd
km/h
Gust
km/h
Spd
kts
Gust
kts
17/06:30pm 28.9 26.0 6.3 24 12.0 NNE 11 19 6 10 - - 0.0
17/06:00pm 29.9 27.0 6.5 23 12.5 NE 11 20 6 11 - - 0.0
17/05:30pm 30.4 26.7 6.3 22 12.9 NE 15 24 8 13 - - 0.0
17/05:00pm 30.8 26.7 4.5 19 13.7 NNE 15 24 8 13 - - 0.0
17/04:30pm 31.2 27.7 5.6 20 13.6 NNE 13 24 7 13 - - 0.0
17/04:00pm 31.2 26.8 4.9 19 13.8 NNE 17 32 9 17 - - 0.0
17/03:30pm 31.1 26.1 4.8 19 13.8 N 20 32 11 17 - - 0.0
17/03:00pm - - - - - N 13 22 7 12 - - 0.0
17/02:30pm 31.6 28.0 5.2 19 14.0 NNE 13 30 7 16 - - 0.0
17/02:00pm 30.9 25.7 3.8 18 14.0 NNE 20 35 11 19 - - 0.0
17/01:30pm 30.4 25.6 4.9 20 13.4 N 19 32 10 17 - - 0.0
17/01:00pm 29.9 24.7 3.8 19 13.4 NNE 20 35 11 19 - - 0.0
17/12:30pm 29.4 24.3 4.1 20 13.0 NNE 20 30 11 16 - - 0.0
17/12:00pm 28.2 23.6 6.3 25 11.6 N 20 35 11 19 - - 0.0
17/11:30am 27.4 23.1 6.8 27 11.0 NNE 19 32 10 17 - - 0.0
17/11:00am 25.7 21.5 7.3 31 9.8 NNE 19 30 10 16 - - 0.0
17/10:30am 24.2 20.1 7.8 35 8.7 NNE 19 32 10 17 - - 0.0
17/10:00am - - - - - NE 17 20 9 11 - - 0.0
17/09:30am - - - - - NE 17 28 9 15 - - 0.0
17/09:00am - - - - - NE 13 22 7 12 - - 0.0
17/08:30am - - - - - ENE 13 22 7 12 - - 0.0
17/08:00am - - - - - ENE 9 13 5 7 - - 0.0
17/07:30am - - - - - E 7 11 4 6 - - 0.0
17/07:00am - - - - - E 9 11 5 6 - - 0.0
17/06:30am - - - - - E 9 11 5 6 - - 0.0
17/06:00am - - - - - E 9 11 5 6 - - 0.0
17/05:30am - - - - - E 6 7 3 4 - - 0.0
17/05:00am - - - - - ENE 6 7 3 4 - - 0.0
17/04:30am - - - - - E 7 9 4 5 - - 0.0
17/04:00am - - - - - ENE 7 13 4 7 - - 0.0
17/03:30am - - - - - ENE 11 17 6 9 - - 0.0
17/03:00am - - - - - ENE 9 15 5 8 - - 0.0
17/02:30am 15.0 12.6 8.7 66 3.2 ENE 11 17 6 9 - - 0.0
17/02:00am 15.4 13.2 9.3 67 3.2 ENE 11 19 6 10 - - 0.0
17/01:30am 15.7 13.9 9.4 66 3.3 ENE 9 17 5 9 - - 0.0
17/01:00am 16.5 14.3 9.4 63 3.7 ENE 11 15 6 8 - - 0.0
17/12:30am 17.0 15.3 9.7 62 3.9 ENE 9 15 5 8 - - 0.0
17/12:00am 16.8 15.1 10.0 64 3.6 ENE 9 15 5 8 - - 0.0
 
Date/Time
EDT
Temp
°C
App
Temp
°C
Dew
Point
°C
Rel
Hum
%
Delta-T
°C
Wind Press
QNH
hPa
Press
MSL
hPa
Rain since
9am
mm
Dir  Spd
km/h
Gust
km/h
Spd
kts
Gust
kts
16/11:30pm 17.0 15.3 9.9 63 3.8 ENE 9 15 5 8 - - 0.0
16/11:00pm 17.5 15.8 9.9 61 4.0 ENE 9 15 5 8 - - 0.0
16/10:30pm 17.8 16.5 9.9 60 4.2 ENE 7 13 4 7 - - 0.0
16/10:00pm 18.1 16.8 10.0 59 4.3 ENE 7 11 4 6 - - 0.0
16/09:30pm 18.9 17.7 10.2 57 4.7 ENE 7 11 4 6 - - 0.0
16/09:00pm 19.5 18.3 10.2 55 5.0 ENE 7 13 4 7 - - 0.0
16/08:30pm 20.6 19.5 10.7 53 5.4 E 7 11 4 6 - - 0.0
16/08:00pm 22.4 20.9 10.5 47 6.6 E 9 13 5 7 - - 0.0
16/07:30pm 24.1 23.1 11.1 44 7.3 E 7 13 4 7 - - 0.0
16/07:00pm 25.9 24.8 10.5 38 8.7 ENE 7 13 4 7 - - 0.0
16/06:30pm 27.3 25.3 10.1 34 9.7 ENE 11 17 6 9 - - 0.0
16/06:00pm 28.3 26.3 10.0 32 10.3 ENE 11 19 6 10 - - 0.0
16/05:30pm 28.9 26.8 9.6 30 10.8 ENE 11 19 6 10 - - 0.0
16/05:00pm 28.9 26.9 10.1 31 10.6 ENE 11 20 6 11 - - 0.0
16/04:30pm 28.1 26.3 9.4 31 10.4 ENE 9 20 5 11 - - 0.0
16/04:00pm 29.2 26.8 9.9 30 10.9 NE 13 22 7 12 - - 0.0
16/03:30pm 28.9 26.6 9.1 29 11.0 NE 11 20 6 11 - - 0.0
16/03:00pm 28.8 26.6 9.5 30 10.8 NNE 11 24 6 13 - - 0.0
16/02:30pm 28.9 27.0 9.1 29 11.0 NE 9 19 5 10 - - 0.0
16/02:00pm 28.0 25.6 8.8 30 10.6 NE 11 19 6 10 - - 0.0
16/01:30pm 28.1 25.6 8.4 29 10.8 NE 11 20 6 11 - - 0.0
16/01:00pm 27.2 24.9 7.6 29 10.6 ENE 9 20 5 11 - - 0.0
16/12:30pm 27.4 25.0 8.8 31 10.2 N 11 24 6 13 - - 0.0
16/12:00pm 26.7 25.4 11.2 38 8.8 NNE 9 17 5 9 - - 0.0
16/11:30am 25.6 23.8 11.0 40 8.3 ENE 11 24 6 13 - - 0.0
16/11:00am 23.8 22.0 12.1 48 6.7 NE 13 20 7 11 - - 0.0
16/10:30am 22.1 20.1 11.5 51 5.9 NE 13 20 7 11 - - 0.0
16/10:00am 20.6 18.3 11.8 57 4.9 ENE 15 24 8 13 - - 0.0
16/09:30am 19.7 17.6 11.2 58 4.7 ENE 13 22 7 12 - - 0.0
16/09:00am 18.1 16.6 11.9 67 3.4 E 11 19 6 10 - - 0.0
16/08:30am 15.3 14.1 11.7 79 2.0 ESE 9 13 5 7 - - 0.0
16/08:00am 12.4 11.3 10.5 88 1.0 E 7 9 4 5 - - 0.0
16/07:30am 10.5 8.7 9.4 93 0.6 E 9 11 5 6 - - 0.0
16/07:00am 9.6 7.6 8.8 95 0.4 E 9 11 5 6 - - 0.0
16/06:30am 9.1 7.0 8.2 94 0.4 ESE 9 9 5 5 - - 0.0
16/06:00am 9.6 7.6 8.5 93 0.5 ESE 9 11 5 6 - - 0.0
16/05:30am 10.0 8.0 8.8 92 0.6 E 9 13 5 7 - - 0.0
16/05:00am 9.9 8.2 8.5 91 0.7 E 7 11 4 6 - - 0.0
16/04:30am 10.5 8.2 8.9 90 0.8 E 11 17 6 9 - - 0.0
16/04:00am 10.8 9.0 9.4 91 0.7 E 9 11 5 6 - - 0.0
16/03:30am 10.8 8.6 9.4 91 0.7 ESE 11 13 6 7 - - 0.0
16/03:00am 11.3 9.6 9.9 91 0.7 E 9 13 5 7 - - 0.0
16/02:30am 11.7 10.0 9.9 89 0.9 E 9 11 5 6 - - 0.0
16/02:00am 11.6 9.9 10.0 90 0.8 ESE 9 13 5 7 - - 0.0
16/01:30am 11.9 10.2 10.0 88 1.0 ESE 9 11 5 6 - - 0.0
16/01:00am 12.5 10.6 10.6 88 1.0 ESE 11 15 6 8 - - 0.0
16/12:30am 12.7 10.4 10.4 86 1.2 ESE 13 17 7 9 - - 0.0
16/12:00am 12.7 10.4 10.4 86 1.2 ESE 13 17 7 9 - - 0.0
 
Date/Time
EDT
Temp
°C
App
Temp
°C
Dew
Point
°C
Rel
Hum
%
Delta-T
°C
Wind Press
QNH
hPa
Press
MSL
hPa
Rain since
9am
mm
Dir  Spd
km/h
Gust
km/h
Spd
kts
Gust
kts
15/11:30pm 13.2 10.5 10.4 83 1.5 SE 15 19 8 10 - - 0.0
15/11:00pm 13.5 10.8 10.5 82 1.6 ESE 15 19 8 10 - - 0.0
15/10:30pm 13.8 11.2 10.8 82 1.6 SE 15 20 8 11 - - 0.0
15/10:00pm 13.8 11.6 10.8 82 1.6 SE 13 17 7 9 - - 0.0
15/09:30pm 14.6 12.5 11.2 80 1.8 SE 13 17 7 9 - - 0.0
15/09:00pm 15.1 12.6 10.9 76 2.2 SE 15 20 8 11 - - 0.0
15/08:30pm 14.8 12.0 8.7 67 3.1 SE 13 17 7 9 - - 0.0
15/08:00pm 16.4 14.0 8.6 60 4.0 SSE 11 13 6 7 - - 0.0
15/07:30pm 18.4 16.4 8.7 53 5.1 SE 9 13 5 7 - - 0.0
15/07:00pm 20.9 18.9 8.5 45 6.5 SE 9 13 5 7 - - 0.0
15/06:30pm 22.1 18.5 6.7 37 7.9 SSE 15 19 8 10 - - 0.0
15/06:00pm 22.8 19.3 7.4 37 8.1 SSE 15 20 8 11 - - 0.0
15/05:30pm 23.3 19.5 7.4 36 8.3 SSE 17 24 9 13 - - 0.0
15/05:00pm 23.8 20.6 7.0 34 8.8 SSE 13 24 7 13 - - 0.0
15/04:30pm 24.0 21.4 6.3 32 9.1 SSE 9 19 5 10 - - 0.0
15/04:00pm - - - - - SSE 11 17 6 9 - - 0.0
15/03:30pm 23.7 20.9 6.9 34 8.8 SE 11 17 6 9 - - 0.0
15/03:00pm 23.5 21.3 8.0 37 8.2 SSE 9 19 5 10 - - 0.0
15/02:30pm 22.9 20.3 6.2 34 8.5 SE 9 17 5 9 - - 0.0
15/02:00pm 22.6 20.0 7.6 38 7.9 SSE 11 19 6 10 - - 0.0
15/01:30pm 22.0 19.7 7.4 39 7.6 SE 9 19 5 10 - - 0.0
15/01:00pm 21.0 19.0 7.3 41 7.1 SE 7 13 4 7 - - 0.0
15/12:30pm 20.4 17.9 6.7 41 7.0 SE 9 17 5 9 - - 0.0
15/12:00pm 19.6 17.4 6.4 42 6.6 ESE 7 11 4 6 - - 0.0
15/11:30am 19.2 17.1 6.0 42 6.6 E 6 11 3 6 - - 0.0
15/11:00am 17.7 14.7 5.9 46 5.8 ESE 11 17 6 9 - - 0.0
15/10:30am 16.7 13.0 6.2 50 5.2 ESE 15 20 8 11 - - 0.0
15/10:00am 15.5 11.8 7.8 60 3.9 ESE 17 24 9 13 - - 0.0
15/09:30am 14.4 11.1 9.6 73 2.5 SE 17 22 9 12 - - 0.0
15/09:00am 12.3 10.5 10.9 91 0.7 SE 11 17 6 9 - - 0.0
15/08:30am 10.0 8.2 9.5 97 0.3 SE 9 13 5 7 - - 0.0
15/08:00am 8.2 6.5 8.2 100 0.0 SE 7 9 4 5 - - 0.0
15/07:30am - - - - - SSE 7 7 4 4 - - 0.0
15/07:00am - - - - - SSE 6 9 3 5 - - 0.0
15/06:30am - - - - - S 6 9 3 5 - - 0.0
15/06:00am - - - - - S 6 7 3 4 - - 0.0
15/05:30am - - - - - SSW 2 6 1 3 - - 0.0
15/05:00am - - - - - SSW 4 6 2 3 - - 0.0
15/04:30am - - - - - SSW 6 7 3 4 - - 0.0
15/04:00am - - - - - SE 7 9 4 5 - - 0.0
15/03:30am - - - - - SE 9 11 5 6 - - 0.0
15/03:00am - - - - - SE 6 7 3 4 - - 0.0
15/02:30am - - - - - SE 9 13 5 7 - - 0.0
15/02:00am - - - - - ESE 11 13 6 7 - - 0.0
15/01:30am - - - - - ESE 13 17 7 9 - - 0.0
15/01:00am - - - - - ESE 11 15 6 8 - - 0.0
15/12:30am 8.6 5.6 7.8 95 0.4 ESE 13 17 7 9 - - 0.0
15/12:00am 8.3 5.2 7.4 94 0.4 ESE 13 15 7 8 - - 0.0
 
Date/Time
EDT
Temp
°C
App
Temp
°C
Dew
Point
°C
Rel
Hum
%
Delta-T
°C
Wind Press
QNH
hPa
Press
MSL
hPa
Rain since
9am
mm
Dir  Spd
km/h
Gust
km/h
Spd
kts
Gust
kts
14/11:30pm 8.3 5.9 7.2 93 0.5 SE 9 11 5 6 - - 0.0
14/11:00pm 8.7 6.4 7.3 91 0.7 SE 9 11 5 6 - - 0.0
14/10:30pm 10.3 8.2 8.4 88 0.9 SE 9 11 5 6 - - 0.0
14/10:00pm 11.0 8.6 8.6 85 1.2 SE 11 17 6 9 - - 0.0
14/09:30pm 10.8 8.6 8.0 83 1.4 SSE 9 11 5 6 - - 0.0
14/09:00pm 11.5 9.4 8.2 80 1.6 SSE 9 13 5 7 - - 0.0
14/08:30pm 12.4 10.4 8.5 77 1.9 SSE 9 13 5 7 - - 0.0
14/08:00pm 14.1 12.1 8.7 70 2.7 S 9 13 5 7 - - 0.0
14/07:30pm 16.4 14.3 9.6 64 3.6 S 11 13 6 7 - - 0.0
14/07:00pm 17.9 15.0 9.5 58 4.4 S 15 22 8 12 - - 0.0

Other Formats:

Comma delimited format used in spreadsheet applications
http://www.bom.gov.au/fwo/IDV60801/IDV60801.95835.axf

JavaScript Object Notation format (JSON) in row-major order
http://www.bom.gov.au/fwo/IDV60801/IDV60801.95835.json